Time,TemperatureF,DewpointF,PressureIn,WindDirection,WindDirectionDegrees,WindSpeedMPH,WindSpeedGustMPH,Humidity,HourlyPrecipIn,Conditions,Clouds,dailyrainin,SoftwareType,DateUTC
2013-11-25 00:03:00,28.2,2.1,30.28,South,180,9.8,9.8,32,0.00,,,0.00,meteobridge,2013-11-25 06:03:00,
2013-11-25 00:08:00,28.2,2.1,30.28,South,180,7.6,13.0,32,0.00,,,0.00,meteobridge,2013-11-25 06:08:00,
2013-11-25 00:13:00,28.2,2.8,30.27,SE,135,5.4,5.4,33,0.00,,,0.00,meteobridge,2013-11-25 06:13:00,
2013-11-25 00:19:00,28.0,2.7,30.27,SE,135,10.7,10.7,33,0.00,,,0.00,meteobridge,2013-11-25 06:19:00,
2013-11-25 00:24:00,28.0,2.7,30.27,SE,135,9.8,9.8,33,0.00,,,0.00,meteobridge,2013-11-25 06:24:00,
2013-11-25 00:29:00,28.0,2.7,30.27,SE,135,7.6,9.2,33,0.00,,,0.00,meteobridge,2013-11-25 06:29:00,
2013-11-25 00:34:00,28.2,3.4,30.27,East,90,6.9,7.6,34,0.00,,,0.00,meteobridge,2013-11-25 06:34:00,
2013-11-25 00:39:00,28.2,3.4,30.27,SE,135,11.4,11.4,34,0.00,,,0.00,meteobridge,2013-11-25 06:39:00,
2013-11-25 00:44:00,28.0,2.7,30.27,South,180,7.6,12.1,33,0.00,,,0.00,meteobridge,2013-11-25 06:44:00,
2013-11-25 00:50:00,28.0,3.2,30.26,SE,135,10.7,10.7,34,0.00,,,0.00,meteobridge,2013-11-25 06:50:00,
2013-11-25 00:55:00,28.0,3.2,30.26,SE,135,10.7,10.7,34,0.00,,,0.00,meteobridge,2013-11-25 06:55:00,
2013-11-25 01:00:00,28.2,4.1,30.26,SE,135,10.7,10.7,35,0.00,,,0.00,meteobridge,2013-11-25 07:00:00,
2013-11-25 01:05:00,28.2,4.1,30.26,SE,135,3.1,5.4,35,0.00,,,0.00,meteobridge,2013-11-25 07:05:00,
2013-11-25 01:10:00,28.2,4.6,30.26,SE,135,4.5,6.9,36,0.00,,,0.00,meteobridge,2013-11-25 07:10:00,
2013-11-25 01:15:00,28.0,4.5,30.25,SE,135,6.9,6.9,36,0.00,,,0.00,meteobridge,2013-11-25 07:15:00,
2013-11-25 01:21:00,28.2,4.6,30.25,South,180,6.9,8.3,36,0.00,,,0.00,meteobridge,2013-11-25 07:21:00,
2013-11-25 01:26:00,28.2,4.6,30.25,South,180,9.8,9.8,36,0.00,,,0.00,meteobridge,2013-11-25 07:26:00,
2013-11-25 01:31:00,28.2,4.6,30.25,South,180,5.4,9.2,36,0.00,,,0.00,meteobridge,2013-11-25 07:31:00,
2013-11-25 01:36:00,28.2,4.6,30.26,SE,135,7.6,9.8,36,0.00,,,0.00,meteobridge,2013-11-25 07:36:00,
2013-11-25 01:41:00,28.4,8.2,30.25,South,180,6.9,7.6,42,0.00,,,0.00,meteobridge,2013-11-25 07:41:00,
2013-11-25 01:46:00,28.2,5.9,30.26,SE,135,8.3,12.1,38,0.00,,,0.00,meteobridge,2013-11-25 07:46:00,
2013-11-25 01:52:00,28.2,5.4,30.26,SW,225,8.3,11.4,37,0.00,,,0.00,meteobridge,2013-11-25 07:52:00,
2013-11-25 01:57:00,28.2,6.4,30.25,SE,135,5.4,7.6,39,0.00,,,0.00,meteobridge,2013-11-25 07:57:00,
2013-11-25 02:02:00,28.2,6.4,30.24,South,180,9.8,9.8,39,0.00,,,0.00,meteobridge,2013-11-25 08:02:00,
2013-11-25 02:07:00,28.2,6.4,30.25,SE,135,4.5,9.8,39,0.00,,,0.00,meteobridge,2013-11-25 08:07:00,
2013-11-25 02:12:00,28.2,7.0,30.24,SE,135,7.6,7.6,40,0.00,,,0.00,meteobridge,2013-11-25 08:12:00,
2013-11-25 02:18:00,28.2,6.4,30.24,SE,135,8.3,8.3,39,0.00,,,0.00,meteobridge,2013-11-25 08:18:00,
2013-11-25 02:23:00,28.2,7.0,30.24,South,180,7.6,7.6,40,0.00,,,0.00,meteobridge,2013-11-25 08:23:00,
2013-11-25 02:28:00,28.4,8.8,30.24,South,180,9.2,9.2,43,0.00,,,0.00,meteobridge,2013-11-25 08:28:00,
2013-11-25 02:33:00,28.4,8.2,30.24,SE,135,7.6,8.3,42,0.00,,,0.00,meteobridge,2013-11-25 08:33:00,
2013-11-25 02:38:00,28.4,8.2,30.24,SE,135,6.0,6.0,42,0.00,,,0.00,meteobridge,2013-11-25 08:38:00,
2013-11-25 02:43:00,28.2,7.5,30.24,SE,135,5.4,7.6,41,0.00,,,0.00,meteobridge,2013-11-25 08:43:00,
2013-11-25 02:49:00,28.2,7.5,30.24,SE,135,7.6,9.2,41,0.00,,,0.00,meteobridge,2013-11-25 08:49:00,
2013-11-25 02:54:00,28.2,7.5,30.24,SE,135,6.0,6.9,41,0.00,,,0.00,meteobridge,2013-11-25 08:54:00,
2013-11-25 02:59:00,28.4,9.7,30.23,SE,135,5.4,6.9,45,0.00,,,0.00,meteobridge,2013-11-25 08:59:00,
2013-11-25 03:04:00,28.4,9.7,30.23,SE,135,5.4,6.9,45,0.00,,,0.00,meteobridge,2013-11-25 09:04:00,
2013-11-25 03:09:00,28.4,9.7,30.22,SE,135,6.0,7.6,45,0.00,,,0.00,meteobridge,2013-11-25 09:09:00,
2013-11-25 03:14:00,28.4,9.7,30.22,SE,135,4.5,6.0,45,0.00,,,0.00,meteobridge,2013-11-25 09:14:00,
2013-11-25 03:20:00,28.4,9.7,30.22,SE,135,7.6,12.1,45,0.00,,,0.00,meteobridge,2013-11-25 09:20:00,
2013-11-25 03:25:00,28.4,9.7,30.22,South,180,11.4,11.4,45,0.00,,,0.00,meteobridge,2013-11-25 09:25:00,
2013-11-25 03:30:00,28.4,9.7,30.22,South,180,10.7,10.7,45,0.00,,,0.00,meteobridge,2013-11-25 09:30:00,
2013-11-25 03:35:00,28.2,7.5,30.21,SE,135,5.4,7.6,41,0.00,,,0.00,meteobridge,2013-11-25 09:35:00,
2013-11-25 03:40:00,28.2,7.5,30.21,South,180,5.4,8.3,41,0.00,,,0.00,meteobridge,2013-11-25 09:40:00,
2013-11-25 03:45:00,28.4,9.7,30.21,SE,135,6.0,6.0,45,0.00,,,0.00,meteobridge,2013-11-25 09:45:00,
2013-11-25 03:51:00,28.4,9.7,30.21,South,180,6.9,6.9,45,0.00,,,0.00,meteobridge,2013-11-25 09:51:00,
2013-11-25 03:56:00,28.4,9.7,30.21,SE,135,6.0,6.0,45,0.00,,,0.00,meteobridge,2013-11-25 09:56:00,
2013-11-25 04:01:00,28.4,10.2,30.22,SW,225,3.8,4.5,46,0.00,,,0.00,meteobridge,2013-11-25 10:01:00,
2013-11-25 04:06:00,28.4,10.2,30.22,SW,225,3.8,3.8,46,0.00,,,0.00,meteobridge,2013-11-25 10:06:00,
2013-11-25 04:11:00,28.4,9.7,30.21,South,180,9.2,9.2,45,0.00,,,0.00,meteobridge,2013-11-25 10:11:00,
2013-11-25 04:16:00,28.4,9.7,30.22,South,180,6.0,7.6,45,0.00,,,0.00,meteobridge,2013-11-25 10:16:00,
2013-11-25 04:22:00,28.4,9.7,30.22,South,180,5.4,9.2,45,0.00,,,0.00,meteobridge,2013-11-25 10:22:00,
2013-11-25 04:27:00,28.2,7.5,30.22,South,180,9.2,9.2,41,0.00,,,0.00,meteobridge,2013-11-25 10:27:00,
2013-11-25 04:32:00,28.2,8.1,30.21,South,180,4.5,4.5,42,0.00,,,0.00,meteobridge,2013-11-25 10:32:00,
2013-11-25 04:37:00,28.2,8.1,30.21,South,180,6.9,9.2,42,0.00,,,0.00,meteobridge,2013-11-25 10:37:00,
2013-11-25 04:42:00,28.2,8.1,30.22,South,180,6.0,6.0,42,0.00,,,0.00,meteobridge,2013-11-25 10:42:00,
2013-11-25 04:47:00,28.2,8.1,30.22,South,180,5.4,6.9,42,0.00,,,0.00,meteobridge,2013-11-25 10:47:00,
2013-11-25 04:53:00,28.2,8.6,30.22,South,180,10.7,10.7,43,0.00,,,0.00,meteobridge,2013-11-25 10:53:00,
2013-11-25 04:58:00,28.2,8.6,30.21,South,180,7.6,7.6,43,0.00,,,0.00,meteobridge,2013-11-25 10:58:00,
2013-11-25 05:03:00,28.0,8.4,30.21,South,180,11.4,11.4,43,0.00,,,0.00,meteobridge,2013-11-25 11:03:00,
2013-11-25 05:08:00,28.0,8.4,30.20,SE,135,8.3,8.3,43,0.00,,,0.00,meteobridge,2013-11-25 11:08:00,
2013-11-25 05:13:00,28.0,8.4,30.20,South,180,4.5,4.5,43,0.00,,,0.00,meteobridge,2013-11-25 11:13:00,
2013-11-25 05:18:00,28.0,9.0,30.20,SE,135,6.9,10.7,44,0.00,,,0.00,meteobridge,2013-11-25 11:18:00,
2013-11-25 05:24:00,27.9,8.8,30.20,North,0,6.9,6.9,44,0.00,,,0.00,meteobridge,2013-11-25 11:24:00,
2013-11-25 05:29:00,27.9,9.3,30.19,South,180,7.6,9.2,45,0.00,,,0.00,meteobridge,2013-11-25 11:29:00,
2013-11-25 05:34:00,28.0,9.5,30.20,SE,135,9.8,12.1,45,0.00,,,0.00,meteobridge,2013-11-25 11:34:00,
2013-11-25 05:39:00,27.9,9.3,30.19,SE,135,10.7,10.7,45,0.00,,,0.00,meteobridge,2013-11-25 11:39:00,
2013-11-25 05:44:00,28.0,9.5,30.19,South,180,6.0,9.8,45,0.00,,,0.00,meteobridge,2013-11-25 11:44:00,
2013-11-25 05:49:00,27.9,9.7,30.18,South,180,6.9,15.2,46,0.00,,,0.00,meteobridge,2013-11-25 11:49:00,
2013-11-25 05:55:00,27.9,9.7,30.18,SE,135,12.1,12.1,46,0.00,,,0.00,meteobridge,2013-11-25 11:55:00,
2013-11-25 06:00:00,27.9,10.2,30.18,South,180,12.1,12.1,47,0.00,,,0.00,meteobridge,2013-11-25 12:00:00,
2013-11-25 06:05:00,27.9,10.2,30.18,South,180,12.1,12.1,47,0.00,,,0.00,meteobridge,2013-11-25 12:05:00,
2013-11-25 06:10:00,27.9,10.8,30.17,SE,135,6.9,9.2,48,0.00,,,0.00,meteobridge,2013-11-25 12:10:00,
2013-11-25 06:15:00,27.9,11.1,30.18,SE,135,8.3,10.7,49,0.00,,,0.00,meteobridge,2013-11-25 12:15:00,
2013-11-25 06:20:00,28.0,11.8,30.18,South,180,6.0,7.6,50,0.00,,,0.00,meteobridge,2013-11-25 12:20:00,
2013-11-25 06:26:00,27.9,11.7,30.18,SE,135,6.9,12.1,50,0.00,,,0.00,meteobridge,2013-11-25 12:26:00,
2013-11-25 06:31:00,28.0,11.8,30.19,South,180,9.2,9.2,50,0.00,,,0.00,meteobridge,2013-11-25 12:31:00,
2013-11-25 06:36:00,28.0,12.2,30.20,SW,225,5.4,6.9,51,0.00,,,0.00,meteobridge,2013-11-25 12:36:00,
2013-11-25 06:41:00,28.0,12.2,30.19,South,180,7.6,10.7,51,0.00,,,0.00,meteobridge,2013-11-25 12:41:00,
2013-11-25 06:46:00,28.0,12.2,30.17,SE,135,7.6,7.6,51,0.00,,,0.00,meteobridge,2013-11-25 12:46:00,
2013-11-25 06:51:00,28.0,12.2,30.19,SW,225,4.5,6.0,51,0.00,,,0.00,meteobridge,2013-11-25 12:51:00,
2013-11-25 06:57:00,28.0,12.2,30.20,South,180,13.0,13.0,51,0.00,,,0.00,meteobridge,2013-11-25 12:57:00,
2013-11-25 07:02:00,28.0,12.2,30.20,South,180,7.6,8.3,51,0.00,,,0.00,meteobridge,2013-11-25 13:02:00,
2013-11-25 07:07:00,28.2,12.9,30.22,South,180,5.4,9.8,52,0.00,,,0.00,meteobridge,2013-11-25 13:07:00,
2013-11-25 07:12:00,28.2,12.9,30.21,South,180,12.1,12.1,52,0.00,,,0.00,meteobridge,2013-11-25 13:12:00,
2013-11-25 07:17:00,28.2,12.9,30.21,South,180,13.0,13.0,52,0.00,,,0.00,meteobridge,2013-11-25 13:17:00,
2013-11-25 07:22:00,28.2,12.9,30.21,South,180,9.2,9.2,52,0.00,,,0.00,meteobridge,2013-11-25 13:22:00,
2013-11-25 07:28:00,28.0,12.7,30.21,South,180,7.6,11.4,52,0.00,,,0.00,meteobridge,2013-11-25 13:28:00,
2013-11-25 07:33:00,28.2,12.9,30.20,South,180,6.9,6.9,52,0.00,,,0.00,meteobridge,2013-11-25 13:33:00,
2013-11-25 07:38:00,28.4,14.7,30.20,South,180,3.1,5.4,56,0.00,,,0.00,meteobridge,2013-11-25 13:38:00,
2013-11-25 07:43:00,28.4,14.7,30.21,South,180,7.6,7.6,56,0.00,,,0.00,meteobridge,2013-11-25 13:43:00,
2013-11-25 07:48:00,28.4,15.1,30.21,SW,225,7.6,7.6,57,0.00,,,0.00,meteobridge,2013-11-25 13:48:00,
2013-11-25 07:54:00,28.4,14.7,30.21,SE,135,6.9,7.6,56,0.00,,,0.00,meteobridge,2013-11-25 13:54:00,
2013-11-25 07:59:00,28.4,14.7,30.22,South,180,7.6,9.8,56,0.00,,,0.00,meteobridge,2013-11-25 13:59:00,
2013-11-25 08:04:00,28.6,14.9,30.21,SW,225,9.2,9.2,56,0.00,,,0.00,meteobridge,2013-11-25 14:04:00,
2013-11-25 08:09:00,28.6,14.9,30.21,South,180,5.4,9.2,56,0.00,,,0.00,meteobridge,2013-11-25 14:09:00,
2013-11-25 08:14:00,28.6,14.9,30.20,South,180,8.3,8.3,56,0.00,,,0.00,meteobridge,2013-11-25 14:14:00,
2013-11-25 08:19:00,28.8,15.1,30.21,South,180,6.0,6.0,56,0.00,,,0.00,meteobridge,2013-11-25 14:19:00,
2013-11-25 08:25:00,28.8,15.1,30.22,SW,225,3.1,5.4,56,0.00,,,0.00,meteobridge,2013-11-25 14:25:00,
2013-11-25 08:30:00,28.8,15.4,30.21,South,180,8.3,9.2,57,0.00,,,0.00,meteobridge,2013-11-25 14:30:00,
2013-11-25 08:35:00,28.9,15.3,30.21,SE,135,4.5,7.6,56,0.00,,,0.00,meteobridge,2013-11-25 14:35:00,
2013-11-25 08:40:00,29.1,15.8,30.22,South,180,2.2,6.0,57,0.00,,,0.00,meteobridge,2013-11-25 14:40:00,
2013-11-25 08:45:00,29.1,15.8,30.22,South,180,3.8,3.8,57,0.00,,,0.00,meteobridge,2013-11-25 14:45:00,
2013-11-25 08:50:00,28.8,15.1,30.21,SE,135,3.8,6.0,56,0.00,,,0.00,meteobridge,2013-11-25 14:50:00,
2013-11-25 08:56:00,28.8,15.1,30.20,South,180,5.4,9.2,56,0.00,,,0.00,meteobridge,2013-11-25 14:56:00,
2013-11-25 09:01:00,28.9,15.6,30.19,SE,135,6.0,8.3,57,0.00,,,0.00,meteobridge,2013-11-25 15:01:00,
2013-11-25 09:06:00,28.8,16.2,30.20,South,180,5.4,7.6,59,0.00,,,0.00,meteobridge,2013-11-25 15:06:00,
2013-11-25 09:11:00,28.8,17.1,30.22,South,180,3.8,6.0,61,0.00,,,0.00,meteobridge,2013-11-25 15:11:00,
2013-11-25 09:16:00,28.8,17.4,30.21,South,180,5.4,5.4,62,0.00,,,0.00,meteobridge,2013-11-25 15:16:00,
2013-11-25 09:21:00,28.8,17.8,30.21,South,180,3.8,8.3,63,0.00,,,0.00,meteobridge,2013-11-25 15:21:00,
2013-11-25 09:27:00,28.8,17.8,30.20,South,180,5.4,5.4,63,0.00,,,0.00,meteobridge,2013-11-25 15:27:00,
2013-11-25 09:32:00,28.8,17.8,30.19,South,180,3.8,7.6,63,0.00,,,0.00,meteobridge,2013-11-25 15:32:00,
2013-11-25 09:37:00,28.9,17.6,30.19,South,180,6.9,6.9,62,0.00,,,0.00,meteobridge,2013-11-25 15:37:00,
2013-11-25 09:42:00,28.9,17.6,30.19,South,180,9.2,9.2,62,0.00,,,0.00,meteobridge,2013-11-25 15:42:00,
2013-11-25 09:47:00,28.8,17.4,30.18,South,180,5.4,7.6,62,0.00,,,0.00,meteobridge,2013-11-25 15:47:00,
2013-11-25 09:52:00,29.7,19.0,30.20,South,180,10.7,10.7,64,0.00,,,0.00,meteobridge,2013-11-25 15:52:00,
2013-11-25 09:58:00,29.1,18.5,30.21,SW,225,7.6,7.6,64,0.00,,,0.00,meteobridge,2013-11-25 15:58:00,
2013-11-25 10:03:00,29.3,18.7,30.21,SW,225,6.0,6.0,64,0.00,,,0.00,meteobridge,2013-11-25 16:03:00,
2013-11-25 10:08:00,29.3,19.4,30.22,South,180,7.6,7.6,66,0.00,,,0.00,meteobridge,2013-11-25 16:08:00,
2013-11-25 10:13:00,29.1,19.6,30.22,South,180,4.5,6.9,67,0.00,,,0.00,meteobridge,2013-11-25 16:13:00,
2013-11-25 10:18:00,28.9,19.8,30.22,West,270,5.4,9.8,68,0.00,,,0.00,meteobridge,2013-11-25 16:18:00,
2013-11-25 10:23:00,29.1,20.5,30.21,SW,225,6.9,8.3,70,0.00,,,0.00,meteobridge,2013-11-25 16:23:00,
2013-11-25 10:29:00,29.1,21.2,30.20,SW,225,8.3,8.3,72,0.00,,,0.00,meteobridge,2013-11-25 16:29:00,
2013-11-25 10:34:00,29.3,21.7,30.20,SW,225,4.5,6.0,73,0.00,,,0.00,meteobridge,2013-11-25 16:34:00,
2013-11-25 10:39:00,29.8,22.3,30.20,SW,225,3.8,6.9,73,0.00,,,0.00,meteobridge,2013-11-25 16:39:00,
2013-11-25 10:44:00,29.8,22.6,30.20,West,270,3.1,6.0,74,0.00,,,0.00,meteobridge,2013-11-25 16:44:00,
2013-11-25 10:49:00,29.8,22.8,30.19,SW,225,6.0,6.0,75,0.00,,,0.00,meteobridge,2013-11-25 16:49:00,
2013-11-25 10:54:00,30.2,23.2,30.19,South,180,5.4,5.4,75,0.00,,,0.00,meteobridge,2013-11-25 16:54:00,
2013-11-25 11:00:00,29.3,22.6,30.19,South,180,4.5,7.6,76,0.00,,,0.00,meteobridge,2013-11-25 17:00:00,
2013-11-25 11:05:00,29.7,23.4,30.19,South,180,3.8,7.6,77,0.00,,,0.00,meteobridge,2013-11-25 17:05:00,
2013-11-25 11:10:00,30.0,23.7,30.19,SW,225,7.6,9.2,77,0.00,,,0.00,meteobridge,2013-11-25 17:10:00,
2013-11-25 11:15:00,30.2,23.2,30.18,SW,225,4.5,6.0,75,0.00,,,0.00,meteobridge,2013-11-25 17:15:00,
2013-11-25 11:20:00,30.4,23.4,30.18,South,180,6.0,6.9,75,0.00,,,0.00,meteobridge,2013-11-25 17:20:00,
2013-11-25 11:25:00,30.2,23.2,30.17,SW,225,3.8,9.2,75,0.00,,,0.00,meteobridge,2013-11-25 17:25:00,
2013-11-25 11:31:00,32.0,25.0,30.17,West,270,5.4,5.4,75,0.00,,,0.00,meteobridge,2013-11-25 17:31:00,
2013-11-25 11:36:00,31.3,24.3,30.17,West,270,4.5,6.0,75,0.00,,,0.00,meteobridge,2013-11-25 17:36:00,
2013-11-25 11:41:00,31.8,24.8,30.17,SW,225,3.8,5.4,75,0.00,,,0.00,meteobridge,2013-11-25 17:41:00,
2013-11-25 11:46:00,32.2,24.4,30.16,West,270,2.2,3.8,73,0.00,,,0.00,meteobridge,2013-11-25 17:46:00,
2013-11-25 11:51:00,31.3,23.9,30.15,South,180,5.4,6.9,74,0.00,,,0.00,meteobridge,2013-11-25 17:51:00,
2013-11-25 11:56:00,31.8,24.4,30.15,SE,135,3.8,6.0,74,0.00,,,0.00,meteobridge,2013-11-25 17:56:00,
2013-11-25 12:02:00,32.0,24.3,30.15,South,180,5.4,5.4,73,0.00,,,0.00,meteobridge,2013-11-25 18:02:00,
2013-11-25 12:07:00,32.0,24.3,30.15,South,180,5.4,5.4,73,0.00,,,0.00,meteobridge,2013-11-25 18:07:00,
2013-11-25 12:12:00,32.0,24.3,30.15,SE,135,5.4,7.6,73,0.00,,,0.00,meteobridge,2013-11-25 18:12:00,
2013-11-25 12:17:00,32.4,24.1,30.15,South,180,3.8,3.8,71,0.00,,,0.00,meteobridge,2013-11-25 18:17:00,
2013-11-25 12:22:00,33.4,25.3,30.14,South,180,4.5,4.5,72,0.00,,,0.00,meteobridge,2013-11-25 18:22:00,
2013-11-25 12:27:00,32.7,24.1,30.14,South,180,6.9,6.9,70,0.00,,,0.00,meteobridge,2013-11-25 18:27:00,
2013-11-25 12:33:00,32.2,23.5,30.14,South,180,6.9,6.9,70,0.00,,,0.00,meteobridge,2013-11-25 18:33:00,
2013-11-25 12:38:00,32.5,23.9,30.14,South,180,2.2,6.0,70,0.00,,,0.00,meteobridge,2013-11-25 18:38:00,
2013-11-25 12:43:00,32.9,23.9,30.14,South,180,5.4,6.0,69,0.00,,,0.00,meteobridge,2013-11-25 18:43:00,
2013-11-25 12:48:00,32.7,23.4,30.14,SW,225,3.8,5.4,68,0.00,,,0.00,meteobridge,2013-11-25 18:48:00,
2013-11-25 12:53:00,34.0,24.6,30.13,SW,225,4.5,4.5,68,0.00,,,0.00,meteobridge,2013-11-25 18:53:00,
2013-11-25 12:58:00,34.3,24.1,30.13,SE,135,3.8,3.8,66,0.00,,,0.00,meteobridge,2013-11-25 18:58:00,
2013-11-25 13:04:00,34.2,24.1,30.12,South,180,5.4,5.4,66,0.00,,,0.00,meteobridge,2013-11-25 19:04:00,
2013-11-25 13:09:00,35.4,25.2,30.12,SW,225,4.5,4.5,66,0.00,,,0.00,meteobridge,2013-11-25 19:09:00,
2013-11-25 13:14:00,34.9,24.3,30.12,South,180,3.1,3.1,65,0.00,,,0.00,meteobridge,2013-11-25 19:14:00,
2013-11-25 13:19:00,34.5,23.5,30.12,West,270,1.6,4.5,64,0.00,,,0.00,meteobridge,2013-11-25 19:19:00,
2013-11-25 13:24:00,35.2,24.3,30.12,North,0,0.0,3.1,64,0.00,,,0.00,meteobridge,2013-11-25 19:24:00,
2013-11-25 13:29:00,34.5,23.5,30.11,West,270,3.8,4.5,64,0.00,,,0.00,meteobridge,2013-11-25 19:29:00,
2013-11-25 13:35:00,34.5,23.2,30.11,West,270,1.6,3.1,63,0.00,,,0.00,meteobridge,2013-11-25 19:35:00,
2013-11-25 13:40:00,34.3,23.0,30.11,East,90,0.0,3.8,63,0.00,,,0.00,meteobridge,2013-11-25 19:40:00,
2013-11-25 13:45:00,34.9,23.5,30.11,South,180,3.8,5.4,63,0.00,,,0.00,meteobridge,2013-11-25 19:45:00,
2013-11-25 13:50:00,35.1,24.1,30.11,West,270,3.1,3.1,64,0.00,,,0.00,meteobridge,2013-11-25 19:50:00,
2013-11-25 13:55:00,34.9,23.9,30.10,South,180,3.8,3.8,64,0.00,,,0.00,meteobridge,2013-11-25 19:55:00,
2013-11-25 14:01:00,34.3,23.7,30.11,SW,225,3.1,4.5,65,0.00,,,0.00,meteobridge,2013-11-25 20:01:00,
2013-11-25 14:06:00,34.3,23.7,30.11,SW,225,3.1,3.1,65,0.00,,,0.00,meteobridge,2013-11-25 20:06:00,
2013-11-25 14:11:00,34.3,23.7,30.10,South,180,0.0,3.1,65,0.00,,,0.00,meteobridge,2013-11-25 20:11:00,
2013-11-25 14:16:00,34.9,24.3,30.10,West,270,2.2,3.1,65,0.00,,,0.00,meteobridge,2013-11-25 20:16:00,
2013-11-25 14:21:00,35.2,24.6,30.10,West,270,1.6,1.6,65,0.00,,,0.00,meteobridge,2013-11-25 20:21:00,
2013-11-25 14:26:00,35.1,24.4,30.10,SW,225,3.1,3.1,65,0.00,,,0.00,meteobridge,2013-11-25 20:26:00,
2013-11-25 14:32:00,34.9,24.3,30.10,South,180,0.0,3.8,65,0.00,,,0.00,meteobridge,2013-11-25 20:32:00,
2013-11-25 14:37:00,35.1,24.8,30.10,West,270,3.1,3.1,66,0.00,,,0.00,meteobridge,2013-11-25 20:37:00,
2013-11-25 14:42:00,34.5,24.3,30.10,West,270,3.1,6.0,66,0.00,,,0.00,meteobridge,2013-11-25 20:42:00,
2013-11-25 14:47:00,35.1,24.8,30.10,SW,225,3.1,3.1,66,0.00,,,0.00,meteobridge,2013-11-25 20:47:00,
2013-11-25 20:07:00,-999.0,-99.9,30.11,North,-999,-999.0,-999.0,-999,0.00,,,0.00,meteobridge,2013-11-26 02:07:00,
2013-11-25 20:12:00,-999.0,-99.9,30.11,North,-999,-999.0,-999.0,-999,0.00,,,0.00,meteobridge,2013-11-26 02:12:00,
2013-11-25 20:18:00,33.4,27.3,30.11,West,270,0.7,0.7,78,0.00,,,0.00,meteobridge,2013-11-26 02:18:00,
2013-11-25 20:23:00,33.4,27.3,30.11,West,270,0.7,0.7,78,0.00,,,0.00,meteobridge,2013-11-26 02:23:00,
2013-11-25 20:28:00,-999.0,-99.9,30.12,North,-999,-999.0,-999.0,-999,0.00,,,0.00,meteobridge,2013-11-26 02:28:00,
2013-11-25 20:34:00,-999.0,-99.9,30.12,North,-999,-999.0,-999.0,-999,0.00,,,0.00,meteobridge,2013-11-26 02:34:00,
2013-11-25 20:39:00,-999.0,-99.9,30.11,North,-999,-999.0,-999.0,-999,0.00,,,0.00,meteobridge,2013-11-26 02:39:00,
2013-11-25 20:44:00,-999.0,-99.9,30.12,North,-999,-999.0,-999.0,-999,0.00,,,0.00,meteobridge,2013-11-26 02:44:00,
2013-11-25 20:49:00,-999.0,-99.9,30.11,North,-999,-999.0,-999.0,-999,0.00,,,0.00,meteobridge,2013-11-26 02:49:00,
2013-11-25 20:54:00,-999.0,-99.9,30.12,North,-999,-999.0,-999.0,-999,0.00,,,0.00,meteobridge,2013-11-26 02:54:00,
2013-11-25 20:59:00,-999.0,-99.9,30.12,North,-999,-999.0,-999.0,-999,0.00,,,0.00,meteobridge,2013-11-26 02:59:00,
2013-11-25 21:05:00,-999.0,-99.9,30.11,North,-999,-999.0,-999.0,-999,0.00,,,0.00,meteobridge,2013-11-26 03:05:00,
2013-11-25 21:10:00,-999.0,-99.9,30.12,North,-999,-999.0,-999.0,-999,0.00,,,0.00,meteobridge,2013-11-26 03:10:00,
2013-11-25 21:15:00,-999.0,-99.9,30.12,North,-999,-999.0,-999.0,-999,0.00,,,0.00,meteobridge,2013-11-26 03:15:00,
2013-11-25 21:20:00,-999.0,-99.9,30.11,North,-999,-999.0,-999.0,-999,0.00,,,0.00,meteobridge,2013-11-26 03:20:00,
2013-11-25 21:25:00,-999.0,-99.9,30.11,North,-999,-999.0,-999.0,-999,-99.99,,,0.00,meteobridge,2013-11-26 03:25:00,
2013-11-25 21:30:00,-999.0,-99.9,30.11,North,-999,-999.0,-999.0,-999,-99.99,,,0.00,meteobridge,2013-11-26 03:30:00,
2013-11-25 21:35:00,-999.0,-99.9,30.11,North,-999,-999.0,-999.0,-999,-99.99,,,0.00,meteobridge,2013-11-26 03:35:00,
2013-11-25 21:41:00,-999.0,-99.9,30.11,North,-999,-999.0,-999.0,-999,-99.99,,,0.00,meteobridge,2013-11-26 03:41:00,
2013-11-25 21:46:00,-999.0,-99.9,30.11,North,-999,-999.0,-999.0,-999,-99.99,,,0.00,meteobridge,2013-11-26 03:46:00,
2013-11-25 21:51:00,-999.0,-99.9,30.11,North,-999,-999.0,-999.0,-999,-99.99,,,0.00,meteobridge,2013-11-26 03:51:00,
2013-11-25 21:56:00,-999.0,-99.9,30.11,North,-999,-999.0,-999.0,-999,-99.99,,,0.00,meteobridge,2013-11-26 03:56:00,
2013-11-25 22:01:00,-999.0,-99.9,30.11,North,-999,-999.0,-999.0,-999,-99.99,,,0.00,meteobridge,2013-11-26 04:01:00,
2013-11-25 22:06:00,-999.0,-99.9,30.11,North,-999,-999.0,-999.0,-999,-99.99,,,0.00,meteobridge,2013-11-26 04:06:00,
2013-11-25 22:12:00,-999.0,-99.9,30.11,North,-999,-999.0,-999.0,-999,-99.99,,,0.00,meteobridge,2013-11-26 04:12:00,
2013-11-25 22:17:00,-999.0,-99.9,30.11,North,-999,-999.0,-999.0,-999,-99.99,,,0.00,meteobridge,2013-11-26 04:17:00,
2013-11-25 22:22:00,-999.0,-99.9,30.11,North,-999,-999.0,-999.0,-999,-99.99,,,0.00,meteobridge,2013-11-26 04:22:00,
2013-11-25 22:27:00,-999.0,-99.9,30.11,North,-999,-999.0,-999.0,-999,-99.99,,,0.00,meteobridge,2013-11-26 04:27:00,
2013-11-25 22:32:00,-999.0,-99.9,30.11,North,-999,-999.0,-999.0,-999,-99.99,,,0.00,meteobridge,2013-11-26 04:32:00,
2013-11-25 22:37:00,-999.0,-99.9,30.11,North,-999,-999.0,-999.0,-999,-99.99,,,0.00,meteobridge,2013-11-26 04:37:00,
2013-11-25 22:43:00,-999.0,-99.9,30.11,North,-999,-999.0,-999.0,-999,-99.99,,,0.00,meteobridge,2013-11-26 04:43:00,
2013-11-25 22:48:00,-999.0,-99.9,30.12,North,-999,-999.0,-999.0,-999,-99.99,,,0.00,meteobridge,2013-11-26 04:48:00,
2013-11-25 22:53:00,-999.0,-99.9,30.11,North,-999,-999.0,-999.0,-999,-99.99,,,0.00,meteobridge,2013-11-26 04:53:00,
2013-11-25 22:58:00,-999.0,-99.9,30.11,North,-999,-999.0,-999.0,-999,-99.99,,,0.00,meteobridge,2013-11-26 04:58:00,
2013-11-25 23:01:00,-999.0,-99.9,30.11,North,-999,-999.0,-999.0,-999,-99.99,,,0.00,meteobridge,2013-11-26 05:01:00,
2013-11-25 23:02:00,-999.0,-99.9,30.11,North,-999,-999.0,-999.0,-999,-99.99,,,0.00,meteobridge,2013-11-26 05:02:00,
2013-11-25 23:03:00,-999.0,-99.9,30.11,North,-999,-999.0,-999.0,-999,-99.99,,,0.00,meteobridge,2013-11-26 05:03:00,
2013-11-25 23:09:00,-999.0,-99.9,30.10,North,-999,-999.0,-999.0,-999,-99.99,,,0.00,meteobridge,2013-11-26 05:09:00,
2013-11-25 23:14:00,-999.0,-99.9,30.10,North,-999,-999.0,-999.0,-999,-99.99,,,0.00,meteobridge,2013-11-26 05:14:00,
2013-11-25 23:19:00,-999.0,-99.9,30.11,North,-999,-999.0,-999.0,-999,-99.99,,,0.00,meteobridge,2013-11-26 05:19:00,
2013-11-25 23:24:00,-999.0,-99.9,30.11,North,-999,-999.0,-999.0,-999,-99.99,,,0.00,meteobridge,2013-11-26 05:24:00,
2013-11-25 23:29:00,-999.0,-99.9,30.11,North,-999,-999.0,-999.0,-999,-99.99,,,0.00,meteobridge,2013-11-26 05:29:00,
2013-11-25 23:35:00,-999.0,-99.9,30.10,North,-999,-999.0,-999.0,-999,-99.99,,,0.00,meteobridge,2013-11-26 05:35:00,
2013-11-25 23:40:00,-999.0,-99.9,30.11,North,-999,-999.0,-999.0,-999,-99.99,,,0.00,meteobridge,2013-11-26 05:40:00,
2013-11-25 23:45:00,-999.0,-99.9,30.11,North,-999,-999.0,-999.0,-999,-99.99,,,0.00,meteobridge,2013-11-26 05:45:00,
2013-11-25 23:50:00,-999.0,-99.9,30.11,North,-999,-999.0,-999.0,-999,-99.99,,,0.00,meteobridge,2013-11-26 05:50:00,
2013-11-25 23:55:00,-999.0,-99.9,30.10,North,-999,-999.0,-999.0,-999,-99.99,,,0.00,meteobridge,2013-11-26 05:55:00,